createdAt,value
2019-04-27T00:01:53.755Z,9.11
2019-04-27T00:04:40.770Z,9.34
2019-04-27T00:07:35.012Z,9.48
2019-04-27T00:10:28.701Z,9.55
2019-04-27T00:12:57.160Z,9.61
2019-04-27T00:15:44.147Z,9.63
2019-04-27T00:18:45.494Z,9.59
2019-04-27T00:21:33.374Z,9.59
2019-04-27T00:24:03.459Z,9.51
2019-04-27T00:26:33.340Z,9.47
2019-04-27T00:29:01.794Z,9.41
2019-04-27T00:31:30.048Z,9.24
2019-04-27T00:33:59.311Z,9.19
2019-04-27T00:36:35.277Z,9.25
2019-04-27T00:39:23.081Z,9.28
2019-04-27T00:41:53.047Z,9.28
2019-04-27T00:44:21.586Z,9.18
2019-04-27T00:46:49.974Z,9.07
2019-04-27T00:49:20.238Z,8.92
2019-04-27T00:51:48.053Z,8.80
2019-04-27T00:54:16.311Z,8.61
2019-04-27T00:57:03.259Z,8.49
2019-04-27T00:59:50.455Z,8.41
2019-04-27T01:02:33.183Z,8.40
2019-04-27T01:05:03.766Z,8.35
2019-04-27T01:07:33.395Z,8.44
2019-04-27T01:10:03.025Z,8.35
2019-04-27T01:12:33.371Z,8.52
2019-04-27T01:15:03.533Z,8.57
2019-04-27T01:17:31.694Z,8.54
2019-04-27T01:19:59.913Z,8.56
2019-04-27T01:22:29.282Z,8.58
2019-04-27T01:24:59.012Z,8.57
2019-04-27T01:27:40.432Z,8.56
2019-04-27T01:30:16.305Z,8.57
2019-04-27T01:32:44.579Z,8.43
2019-04-27T01:35:12.800Z,8.49
2019-04-27T01:37:41.019Z,8.34
2019-04-27T01:40:09.802Z,8.17
2019-04-27T01:42:39.529Z,8.07
2019-04-27T01:45:08.540Z,7.99
2019-04-27T01:47:36.810Z,8.15
2019-04-27T01:50:05.110Z,8.29
2019-04-27T01:52:33.373Z,8.34
2019-04-27T01:55:01.595Z,8.41
2019-04-27T01:57:29.954Z,8.44
2019-04-27T01:59:58.985Z,8.54
2019-04-27T02:02:42.753Z,8.47
2019-04-27T02:05:20.959Z,8.47
2019-04-27T02:07:50.195Z,8.50
2019-04-27T02:10:19.646Z,8.43
2019-04-27T02:12:48.818Z,8.30
2019-04-27T02:15:19.143Z,8.35
2019-04-27T02:17:51.011Z,8.41
2019-04-27T02:20:20.341Z,8.52
2019-04-27T02:22:50.764Z,8.50
2019-04-27T02:25:21.094Z,8.49
2019-04-27T02:27:53.954Z,8.37
2019-04-27T02:30:49.807Z,8.37
2019-04-27T02:33:30.257Z,8.42
2019-04-27T02:36:00.394Z,8.29
2019-04-27T02:38:30.510Z,8.41
2019-04-27T02:41:02.306Z,8.53
2019-04-27T02:43:54.312Z,8.56
2019-04-27T02:46:23.481Z,8.60
2019-04-27T02:48:59.642Z,8.45
2019-04-27T02:51:33.037Z,8.38
2019-04-27T02:54:03.274Z,8.41
2019-04-27T02:56:32.785Z,8.40
2019-04-27T02:59:01.981Z,8.19
2019-04-27T03:01:33.694Z,7.96
2019-04-27T03:04:02.920Z,7.81
2019-04-27T03:06:32.105Z,7.75
2019-04-27T03:09:01.310Z,7.65
2019-04-27T03:11:31.845Z,7.67
2019-04-27T03:14:36.212Z,7.80
2019-04-27T03:17:10.071Z,7.78
2019-04-27T03:19:45.672Z,7.72
2019-04-27T03:22:32.136Z,7.71
2019-04-27T03:25:30.391Z,7.82
2019-04-27T03:28:14.005Z,7.91
2019-04-27T03:30:43.790Z,7.96
2019-04-27T03:33:13.172Z,7.93
2019-04-27T03:35:43.884Z,7.86
2019-04-27T03:38:13.527Z,7.98
2019-04-27T03:40:42.697Z,7.98
2019-04-27T03:43:16.926Z,8.07
2019-04-27T03:45:46.164Z,8.07
2019-04-27T03:48:16.863Z,8.18
2019-04-27T03:51:02.810Z,8.19
2019-04-27T03:53:49.883Z,8.19
2019-04-27T03:56:24.528Z,8.02
2019-04-27T03:59:06.089Z,8.19
2019-04-27T04:01:35.407Z,8.26
2019-04-27T04:04:06.434Z,8.18
2019-04-27T04:06:35.650Z,8.25
2019-04-27T04:09:06.824Z,8.30
2019-04-27T04:11:55.155Z,8.31
2019-04-27T04:14:24.700Z,8.38
2019-04-27T04:17:02.714Z,8.41
2019-04-27T04:19:47.469Z,8.49
2019-04-27T04:22:01.310Z,8.58
2019-04-27T04:24:31.805Z,8.49
2019-04-27T04:27:01.147Z,8.63
2019-04-27T04:29:30.775Z,8.76
2019-04-27T04:32:00.539Z,8.82
2019-04-27T04:34:30.046Z,8.83
2019-04-27T04:37:00.406Z,8.83
2019-04-27T04:39:29.884Z,8.86
2019-04-27T04:42:14.467Z,8.96
2019-04-27T04:45:10.643Z,9.04
2019-04-27T04:47:55.645Z,9.11
2019-04-27T04:50:24.818Z,9.17
2019-04-27T04:52:53.983Z,9.23
2019-04-27T04:55:23.306Z,9.27
2019-04-27T04:57:52.490Z,9.34
2019-04-27T05:00:21.838Z,9.35
2019-04-27T05:02:51.085Z,9.42
2019-04-27T05:05:20.728Z,9.51
2019-04-27T05:07:49.895Z,9.59
2019-04-27T05:10:19.211Z,9.95
2019-04-27T05:12:50.341Z,10.13
2019-04-27T05:15:20.704Z,10.08
2019-04-27T05:17:51.001Z,10.32
2019-04-27T05:20:26.484Z,10.32
2019-04-27T05:22:55.818Z,10.21
2019-04-27T05:25:25.055Z,10.41
2019-04-27T05:27:54.265Z,10.60
2019-04-27T05:30:23.443Z,10.81
2019-04-27T05:32:52.778Z,10.90
2019-04-27T05:35:21.950Z,11.01
2019-04-27T05:37:51.143Z,11.27
2019-04-27T05:40:20.310Z,11.26
2019-04-27T05:42:55.018Z,11.31
2019-04-27T05:46:35.612Z,11.55
2019-04-27T05:49:06.210Z,11.46
2019-04-27T05:51:37.331Z,11.60
2019-04-27T05:54:06.798Z,11.66
2019-04-27T05:56:36.039Z,11.65
2019-04-27T05:59:05.215Z,11.72
2019-04-27T06:01:34.399Z,11.69
2019-04-27T06:04:03.663Z,11.57
2019-04-27T06:06:32.831Z,11.65
2019-04-27T06:09:02.049Z,11.49
2019-04-27T06:11:31.477Z,11.60
2019-04-27T06:14:00.673Z,11.39
2019-04-27T06:16:30.248Z,11.39
2019-04-27T06:18:59.719Z,11.17
2019-04-27T06:21:29.462Z,11.21
2019-04-27T06:23:58.977Z,11.26
2019-04-27T06:26:30.176Z,11.28
2019-04-27T06:28:59.673Z,11.08
2019-04-27T06:31:29.698Z,11.02
2019-04-27T06:33:59.687Z,10.94
2019-04-27T06:36:29.167Z,10.95
2019-04-27T06:38:58.914Z,11.00
2019-04-27T06:41:29.489Z,10.86
2019-04-27T06:43:59.351Z,10.88
2019-04-27T06:46:28.910Z,10.98
2019-04-27T06:48:59.325Z,11.14
2019-04-27T06:51:28.877Z,11.01
2019-04-27T06:53:59.494Z,10.94
2019-04-27T06:56:28.939Z,11.01
2019-04-27T06:58:59.688Z,11.07
2019-04-27T07:01:29.956Z,11.24
2019-04-27T07:03:59.773Z,11.25
2019-04-27T07:06:29.205Z,11.12
2019-04-27T07:08:59.740Z,11.16
2019-04-27T07:11:29.582Z,11.22
2019-04-27T07:13:59.457Z,11.10
2019-04-27T07:16:29.374Z,11.09
2019-04-27T07:18:59.346Z,11.22
2019-04-27T07:21:28.715Z,11.10
2019-04-27T07:23:59.350Z,11.12
2019-04-27T07:26:30.349Z,11.30
2019-04-27T07:28:59.947Z,11.32
2019-04-27T07:31:31.605Z,11.50
2019-04-27T07:34:00.058Z,11.30
2019-04-27T07:36:29.201Z,10.82
2019-04-27T07:38:59.891Z,10.73
2019-04-27T07:41:29.637Z,10.90
2019-04-27T07:44:10.258Z,11.32
2019-04-27T07:46:39.451Z,11.39
2019-04-27T07:49:09.321Z,11.51
2019-04-27T07:51:39.324Z,11.46
2019-04-27T07:54:10.639Z,11.52
2019-04-27T07:56:39.844Z,11.70
2019-04-27T07:59:09.245Z,11.60
2019-04-27T08:01:39.796Z,11.40
2019-04-27T08:04:09.282Z,11.62
2019-04-27T08:06:38.838Z,11.51
2019-04-27T08:09:09.507Z,11.40
2019-04-27T08:11:39.694Z,11.34
2019-04-27T08:14:08.923Z,11.71
2019-04-27T08:16:38.781Z,11.41
2019-04-27T08:19:09.938Z,11.69
2019-04-27T08:21:44.574Z,11.66
2019-04-27T08:24:11.143Z,11.57
2019-04-27T08:26:47.143Z,11.60
2019-04-27T08:29:27.248Z,11.60
2019-04-27T08:31:59.879Z,11.75
2019-04-27T08:34:36.223Z,12.02
2019-04-27T08:37:06.462Z,12.23
2019-04-27T08:39:35.606Z,12.21
2019-04-27T08:42:05.517Z,11.91
2019-04-27T08:44:34.711Z,11.90
2019-04-27T08:47:03.916Z,11.85
2019-04-27T08:49:33.060Z,11.40
2019-04-27T08:52:02.746Z,11.52
2019-04-27T08:54:32.152Z,11.47
2019-04-27T20:55:01.266Z,7.70
2019-04-27T20:57:31.740Z,7.69
2019-04-27T21:00:02.287Z,7.74
2019-04-27T21:02:53.303Z,7.80
2019-04-27T21:05:31.940Z,7.64
2019-04-27T21:08:03.266Z,7.60
2019-04-27T21:10:32.647Z,7.53
2019-04-27T21:13:01.844Z,7.48
2019-04-27T21:15:31.559Z,7.57
2019-04-27T21:18:01.294Z,7.76
2019-04-27T21:20:31.049Z,7.83
2019-04-27T21:23:01.892Z,7.90
2019-04-27T21:25:31.582Z,7.93
2019-04-27T21:28:15.004Z,7.91
2019-04-27T21:30:33.023Z,7.88
2019-04-27T21:33:03.190Z,7.71
2019-04-27T21:35:32.412Z,7.63
2019-04-27T21:38:04.692Z,7.57
2019-04-27T21:40:33.786Z,7.47
2019-04-27T22:25:54.296Z,7.00
